Time;durP1;ratioP1;P1;durP2;ratioP2;P2;SDS_P1;SDS_P2;PMS_P1;PMS_P2;Temp;Humidity;BMP_temperature;BMP_pressure;BME280_temperature;BME280_humidity;BME280_pressure;Samples;Min_cycle;Max_cycle;Signal;HPM_P1;HPM_P2
2021/03/22 00:00:50;;;;;;;;;;;;;;;17.52;62.52;100748.03;5088329;27;1983;-65
2021/03/22 00:03:19;;;;;;;;;;;;;;;17.47;61.60;100761.47;5094441;27;1530;-66
2021/03/22 00:05:45;;;;;;;;;;;;;;;17.42;61.76;100764.31;5099730;27;1653;-64
2021/03/22 00:08:12;;;;;;;;;;;;;;;17.39;61.55;100758.34;5129892;27;991;-66
2021/03/22 00:10:41;;;;;;;;;;;;;;;17.37;61.37;100757.59;5131358;27;1266;-66
2021/03/22 00:13:07;;;;;;;;;;;;;;;17.36;60.62;100758.50;5132728;27;794;-66
2021/03/22 00:15:35;;;;;;;;;;;;;;;17.34;60.45;100757.75;5133096;27;1347;-66
2021/03/22 00:18:03;;;;;;;;;;;;;;;17.32;60.46;100762.25;5131635;27;1176;-66
2021/03/22 00:20:34;;;;;;;;;;;;;;;17.32;59.84;100764.88;5133137;27;1980;-66
2021/03/22 00:23:00;;;;;;;;;;;;;;;17.32;59.56;100762.25;5132716;27;936;-66
2021/03/22 00:25:26;;;;;;;;;;;;;;;17.32;59.45;100772.78;5114001;27;1319;-65
2021/03/22 00:27:52;;;;;;;;;;;;;;;17.30;59.46;100775.47;5113715;27;1400;-65
2021/03/22 00:30:25;;;;;;;;;;;;;;;17.30;59.27;100771.97;5132945;27;1278;-65
2021/03/22 00:32:51;;;;;;;;;;;;;;;17.29;59.31;100773.78;5132264;27;1279;-65
2021/03/22 00:35:18;;;;;;;;;;;;;;;17.27;59.13;100778.25;5132806;27;1300;-65
2021/03/22 00:37:45;;;;;;;;;;;;;;;17.26;59.29;100773.94;5132143;27;1279;-64
2021/03/22 00:40:11;;;;;;;;;;;;;;;17.27;59.07;100769.50;5132474;27;1980;-65
2021/03/22 00:42:38;;;;;;;;;;;;;;;17.26;59.06;100780.97;5110567;28;1536;-66
2021/03/22 00:45:05;;;;;;;;;;;;;;;17.24;58.91;100780.19;5105519;28;1055;-65
2021/03/22 00:47:32;;;;;;;;;;;;;;;17.24;58.98;100780.19;5072928;28;1278;-66
2021/03/22 00:49:59;;;;;;;;;;;;;;;17.21;58.96;100782.97;5055988;28;1366;-65
2021/03/22 00:52:25;;;;;;;;;;;;;;;17.22;59.23;100782.06;5072416;28;1292;-65
2021/03/22 00:54:52;;;;;;;;;;;;;;;17.19;59.33;100783.06;5091200;28;1075;-66
2021/03/22 00:57:18;;;;;;;;;;;;;;;17.18;59.61;100783.13;5090855;28;1193;-65
2021/03/22 00:59:44;;;;;;;;;;;;;;;17.16;59.44;100785.00;5090287;28;1938;-65
2021/03/22 01:02:11;;;;;;;;;;;;;;;17.14;59.16;100785.09;5108213;28;1307;-67
2021/03/22 01:04:37;;;;;;;;;;;;;;;17.12;59.28;100781.66;5082616;28;1814;-65
2021/03/22 01:07:03;;;;;;;;;;;;;;;17.10;59.42;100783.50;5072825;28;1782;-65
2021/03/22 01:09:30;;;;;;;;;;;;;;;17.15;59.82;100780.63;5072602;28;933;-66
2021/03/22 01:11:56;;;;;;;;;;;;;;;17.13;59.54;100774.63;5090841;28;1216;-65
2021/03/22 01:14:24;;;;;;;;;;;;;;;17.09;59.69;100765.16;5090923;28;1098;-66
2021/03/22 01:16:50;;;;;;;;;;;;;;;17.06;59.67;100765.31;5090639;28;1197;-66
2021/03/22 01:19:20;;;;;;;;;;;;;;;17.04;59.61;100767.16;5090305;28;1060;-65
2021/03/22 01:21:48;;;;;;;;;;;;;;;17.02;59.61;100763.78;5090512;28;1914;-65
2021/03/22 01:24:16;;;;;;;;;;;;;;;17.02;60.01;100769.03;5090721;28;905;-66
2021/03/22 01:26:42;;;;;;;;;;;;;;;16.98;60.12;100764.84;5090738;28;1313;-66
2021/03/22 01:29:16;;;;;;;;;;;;;;;16.95;60.10;100763.22;5090409;28;1056;-66
2021/03/22 01:31:43;;;;;;;;;;;;;;;16.94;60.16;100767.63;5090581;28;1272;-66
2021/03/22 01:34:10;;;;;;;;;;;;;;;16.94;60.32;100766.75;5090216;28;1107;-67
2021/03/22 01:36:36;;;;;;;;;;;;;;;16.93;60.27;100760.66;5090067;28;1201;-65
2021/03/22 01:39:08;;;;;;;;;;;;;;;16.92;60.52;100768.63;5090353;28;1162;-65
2021/03/22 01:41:35;;;;;;;;;;;;;;;16.90;60.47;100760.78;5090271;28;1938;-66
2021/03/22 01:44:19;;;;;;;;;;;;;;;16.89;60.75;100764.38;5090363;28;1118;-64
2021/03/22 01:46:50;;;;;;;;;;;;;;;16.88;60.73;100764.44;5055019;28;1323;-64
2021/03/22 01:49:17;;;;;;;;;;;;;;;16.86;60.66;100761.91;5055340;28;1574;-65
2021/03/22 01:51:44;;;;;;;;;;;;;;;16.86;60.77;100761.91;5089957;28;1247;-65
2021/03/22 01:54:11;;;;;;;;;;;;;;;16.86;60.86;100761.91;5090044;28;988;-65
2021/03/22 01:56:46;;;;;;;;;;;;;;;16.83;60.92;100767.31;5089755;28;1271;-65
2021/03/22 01:59:14;;;;;;;;;;;;;;;16.83;60.88;100759.41;5089877;28;916;-65
2021/03/22 02:01:42;;;;;;;;;;;;;;;16.84;60.71;100770.78;5089864;28;1914;-65
2021/03/22 02:04:09;;;;;;;;;;;;;;;16.81;60.88;100777.03;5071640;28;1230;-65
2021/03/22 02:06:35;;;;;;;;;;;;;;;16.81;60.74;100777.03;5089576;28;1293;-65
2021/03/22 02:09:02;;;;;;;;;;;;;;;16.79;60.82;100776.25;5071266;28;1254;-65
2021/03/22 02:11:30;;;;;;;;;;;;;;;16.79;61.06;100778.91;5089603;28;1164;-64
2021/03/22 02:14:00;;;;;;;;;;;;;;;16.79;60.70;100778.03;5088968;28;1060;-65
2021/03/22 02:16:55;;;;;;;;;;;;;;;16.78;60.70;100786.84;5089316;28;1241;-65
2021/03/22 02:19:40;;;;;;;;;;;;;;;16.76;60.78;100772.91;4999177;28;1196;-65
2021/03/22 02:22:06;;;;;;;;;;;;;;;16.74;60.91;100770.38;5089336;28;1902;-64
2021/03/22 02:24:50;;;;;;;;;;;;;;;16.74;60.81;100767.75;5089790;28;947;-65
2021/03/22 02:27:23;;;;;;;;;;;;;;;16.73;60.90;100766.03;5089517;28;1232;-65
2021/03/22 02:30:00;;;;;;;;;;;;;;;16.74;60.52;100761.63;5089504;28;1056;-65
2021/03/22 02:32:37;;;;;;;;;;;;;;;16.73;60.46;100762.56;5089310;28;1224;-65
2021/03/22 02:35:07;;;;;;;;;;;;;;;16.73;60.32;100759.91;5070936;28;1298;-64
2021/03/22 02:37:33;;;;;;;;;;;;;;;16.72;60.33;100755.56;5071171;28;1287;-66
2021/03/22 02:39:59;;;;;;;;;;;;;;;16.72;60.20;100755.56;5089377;28;1910;-65
2021/03/22 02:42:27;;;;;;;;;;;;;;;16.71;60.05;100749.50;5088927;28;1216;-65
2021/03/22 02:44:54;;;;;;;;;;;;;;;16.71;59.95;100754.75;5088926;28;1001;-66
2021/03/22 02:47:23;;;;;;;;;;;;;;;16.69;59.98;100750.47;5089451;28;1315;-65
2021/03/22 02:49:52;;;;;;;;;;;;;;;16.68;60.13;100747.00;5088996;28;1633;-65
2021/03/22 02:52:18;;;;;;;;;;;;;;;16.68;60.18;100748.78;5088968;28;1285;-65
2021/03/22 02:54:53;;;;;;;;;;;;;;;16.67;60.44;100732.13;5089215;28;1049;-65
2021/03/22 02:57:20;;;;;;;;;;;;;;;16.66;59.98;100733.06;5070440;28;1217;-66
2021/03/22 02:59:48;;;;;;;;;;;;;;;16.66;60.19;100746.19;5089127;28;1063;-65
2021/03/22 03:02:15;;;;;;;;;;;;;;;16.65;60.31;100735.78;5088621;28;1989;-67
2021/03/22 03:04:43;;;;;;;;;;;;;;;16.65;60.11;100734.00;5070737;28;1191;-66
2021/03/22 03:07:11;;;;;;;;;;;;;;;16.65;59.96;100741.88;5088779;28;1244;-66
2021/03/22 03:09:39;;;;;;;;;;;;;;;16.63;59.96;100738.47;5089046;28;1031;-66
2021/03/22 03:12:14;;;;;;;;;;;;;;;16.62;60.06;100739.41;5088237;28;1270;-66
2021/03/22 03:14:45;;;;;;;;;;;;;;;16.64;60.01;100744.56;5089109;28;1049;-66
2021/03/22 03:17:31;;;;;;;;;;;;;;;16.61;59.96;100742.94;5089029;28;1280;-65
2021/03/22 03:19:57;;;;;;;;;;;;;;;16.62;60.13;100749.06;5070693;28;1346;-66
2021/03/22 03:22:24;;;;;;;;;;;;;;;16.62;59.98;100756.97;5088853;28;1315;-66
2021/03/22 03:24:50;;;;;;;;;;;;;;;16.60;59.79;100749.13;5090391;28;1071;-66
2021/03/22 03:27:16;;;;;;;;;;;;;;;16.58;59.89;100753.63;5093314;28;1213;-66
2021/03/22 03:29:43;;;;;;;;;;;;;;;16.59;59.87;100738.69;5093376;28;1203;-67
2021/03/22 03:32:11;;;;;;;;;;;;;;;16.58;59.90;100740.47;5093073;28;1201;-66
2021/03/22 03:34:37;;;;;;;;;;;;;;;16.59;59.82;100736.06;5074961;28;1146;-66
2021/03/22 03:37:04;;;;;;;;;;;;;;;16.57;59.73;100749.28;5092715;28;1173;-66
2021/03/22 03:39:30;;;;;;;;;;;;;;;16.58;59.58;100745.72;5093115;28;982;-65
2021/03/22 03:41:56;;;;;;;;;;;;;;;16.58;59.53;100753.63;5092783;28;1972;-66
2021/03/22 03:44:22;;;;;;;;;;;;;;;16.57;59.34;100757.16;5092920;28;1158;-66
2021/03/22 03:46:49;;;;;;;;;;;;;;;16.55;59.59;100755.53;5092562;28;1286;-65
2021/03/22 03:49:15;;;;;;;;;;;;;;;16.55;59.32;100753.75;5092602;28;1431;-66
2021/03/22 03:51:41;;;;;;;;;;;;;;;16.54;59.38;100757.31;5092647;28;1207;-66
2021/03/22 03:54:09;;;;;;;;;;;;;;;16.54;59.23;100757.31;5074063;28;1549;-66
2021/03/22 03:56:36;;;;;;;;;;;;;;;16.54;59.37;100752.06;5073706;28;1373;-66
2021/03/22 03:59:04;;;;;;;;;;;;;;;16.54;59.52;100757.31;5092487;28;1050;-66
2021/03/22 04:01:30;;;;;;;;;;;;;;;16.52;59.41;100755.66;5092281;28;1906;-66
2021/03/22 04:03:57;;;;;;;;;;;;;;;16.53;59.58;100765.25;5074151;28;1379;-67
2021/03/22 04:06:26;;;;;;;;;;;;;;;16.51;59.62;100760.06;5092058;28;1197;-66
2021/03/22 04:08:56;;;;;;;;;;;;;;;16.51;59.35;100767.94;5092137;28;1102;-66
2021/03/22 04:11:30;;;;;;;;;;;;;;;16.51;59.32;100767.94;5057089;28;1321;-67
2021/03/22 04:13:57;;;;;;;;;;;;;;;16.51;59.14;100769.72;5073519;28;1438;-66
2021/03/22 04:16:24;;;;;;;;;;;;;;;16.51;59.31;100767.09;5092140;28;1239;-67
2021/03/22 04:18:51;;;;;;;;;;;;;;;16.49;59.35;100766.31;5073202;28;1302;-66
2021/03/22 04:21:20;;;;;;;;;;;;;;;16.49;59.15;100764.53;5072768;28;1902;-67
2021/03/22 04:23:47;;;;;;;;;;;;;;;16.49;59.04;100763.69;5091901;28;1139;-66
2021/03/22 04:26:14;;;;;;;;;;;;;;;16.50;59.06;100770.66;5073514;28;1137;-66
2021/03/22 04:28:41;;;;;;;;;;;;;;;16.46;58.94;100769.94;5091834;28;1035;-66
2021/03/22 04:31:08;;;;;;;;;;;;;;;16.46;58.85;100764.69;5091795;28;1311;-66
2021/03/22 04:33:34;;;;;;;;;;;;;;;16.46;58.78;100767.31;5091688;28;1031;-67
2021/03/22 04:36:01;;;;;;;;;;;;;;;16.46;58.95;100775.19;5090749;28;1197;-66
2021/03/22 04:38:27;;;;;;;;;;;;;;;16.45;58.69;100777.88;5091072;28;1039;-66
2021/03/22 04:40:55;;;;;;;;;;;;;;;16.44;58.69;100770.94;5091188;28;1910;-67
2021/03/22 04:43:21;;;;;;;;;;;;;;;16.42;58.58;100769.22;5091111;28;1151;-67
2021/03/22 04:45:48;;;;;;;;;;;;;;;16.44;58.81;100765.69;5072908;28;1283;-66
2021/03/22 04:48:14;;;;;;;;;;;;;;;16.42;58.76;100771.84;5091266;28;1005;-66
2021/03/22 04:50:41;;;;;;;;;;;;;;;16.43;58.79;100775.34;5090913;28;1439;-67
2021/03/22 04:53:07;;;;;;;;;;;;;;;16.41;58.69;100778.03;5073176;28;814;-67
2021/03/22 04:55:33;;;;;;;;;;;;;;;16.40;58.61;100776.34;5091471;28;1102;-67
2021/03/22 04:58:00;;;;;;;;;;;;;;;16.40;58.76;100775.50;5091018;28;794;-67
2021/03/22 05:00:31;;;;;;;;;;;;;;;16.40;58.76;100775.50;5072737;28;1915;-67
2021/03/22 05:02:57;;;;;;;;;;;;;;;16.41;58.40;100766.69;5090858;28;1240;-67
2021/03/22 05:05:25;;;;;;;;;;;;;;;16.39;58.54;100768.50;5091194;28;1137;-66
2021/03/22 05:07:51;;;;;;;;;;;;;;;16.37;58.57;100768.59;5090807;28;1220;-66
2021/03/22 05:10:21;;;;;;;;;;;;;;;16.37;58.64;100765.97;5096456;27;1573;-67
2021/03/22 05:12:47;;;;;;;;;;;;;;;16.38;58.60;100765.03;5110790;28;1260;-67
2021/03/22 05:15:14;;;;;;;;;;;;;;;16.40;58.43;100767.59;5087456;28;1601;-66
2021/03/22 05:17:40;;;;;;;;;;;;;;;16.36;58.59;100759.00;5107975;28;1353;-66
2021/03/22 05:20:08;;;;;;;;;;;;;;;16.36;58.45;100766.88;5075379;28;1474;-66
2021/03/22 05:22:34;;;;;;;;;;;;;;;16.35;58.43;100773.06;5110866;28;2035;-66
2021/03/22 05:25:00;;;;;;;;;;;;;;;16.36;58.53;100766.03;5111286;28;1181;-66
2021/03/22 05:27:27;;;;;;;;;;;;;;;16.36;58.63;100768.66;5103824;28;1336;-66
2021/03/22 05:29:53;;;;;;;;;;;;;;;16.34;58.35;100774.00;5090611;28;929;-66
2021/03/22 05:32:27;;;;;;;;;;;;;;;16.35;58.46;100772.22;5090479;28;1212;-67
2021/03/22 05:34:53;;;;;;;;;;;;;;;16.33;58.40;100774.91;5089662;28;1103;-67
2021/03/22 05:37:19;;;;;;;;;;;;;;;16.32;58.53;100775.81;5071913;28;1225;-66
2021/03/22 05:39:46;;;;;;;;;;;;;;;16.33;58.54;100787.19;5090608;28;1157;-66
2021/03/22 05:42:28;;;;;;;;;;;;;;;16.31;58.53;100775.91;5094111;28;1967;-67
2021/03/22 05:44:57;;;;;;;;;;;;;;;16.31;58.42;100776.78;5111018;28;955;-67
2021/03/22 05:47:33;;;;;;;;;;;;;;;16.31;58.31;100781.19;5111263;28;1265;-66
2021/03/22 05:50:09;;;;;;;;;;;;;;;16.31;58.37;100791.69;5110669;28;1061;-66
2021/03/22 05:52:54;;;;;;;;;;;;;;;16.29;58.49;100788.28;5110758;28;1264;-66
2021/03/22 05:55:33;;;;;;;;;;;;;;;16.30;58.35;100785.56;5110667;28;1207;-65
2021/03/22 05:58:08;;;;;;;;;;;;;;;16.29;58.54;100783.84;5110667;28;1345;-67
2021/03/22 06:00:50;;;;;;;;;;;;;;;16.29;58.54;100790.91;5071619;28;1905;-67
2021/03/22 06:03:22;;;;;;;;;;;;;;;16.30;58.19;100800.50;5089867;28;1074;-68
2021/03/22 06:05:48;;;;;;;;;;;;;;;16.27;58.47;100790.13;5089727;28;1241;-68
2021/03/22 06:08:23;;;;;;;;;;;;;;;16.29;58.31;100801.44;5089686;28;1103;-68
2021/03/22 06:10:51;;;;;;;;;;;;;;;16.29;59.48;100797.00;5071388;28;1236;-65
2021/03/22 06:13:22;;;;;;;;;;;;;;;16.35;58.84;100803.78;5090018;27;1628;-67
2021/03/22 06:15:53;;;;;;;;;;;;;;;16.32;58.21;100811.81;5089445;28;1236;-67
2021/03/22 06:18:20;;;;;;;;;;;;;;;16.30;58.30;100816.25;5109515;28;1030;-67
2021/03/22 06:20:47;;;;;;;;;;;;;;;16.28;58.37;100807.59;5103481;28;1906;-67
2021/03/22 06:23:16;;;;;;;;;;;;;;;16.27;58.44;100806.75;5093446;28;1087;-68
2021/03/22 06:25:43;;;;;;;;;;;;;;;16.27;58.47;100819.03;5109734;28;1253;-66
2021/03/22 06:28:09;;;;;;;;;;;;;;;16.33;58.95;100821.38;5091250;28;842;-66
2021/03/22 06:30:36;;;;;;;;;;;;;;;16.31;58.41;100821.47;5110086;28;1275;-67
2021/03/22 06:33:04;;;;;;;;;;;;;;;16.31;58.46;100820.59;5103873;28;837;-68
2021/03/22 06:35:31;;;;;;;;;;;;;;;16.30;58.71;100826.78;5071140;28;1308;-66
2021/03/22 06:37:58;;;;;;;;;;;;;;;16.28;58.39;100812.84;5089435;28;1295;-66
2021/03/22 06:40:24;;;;;;;;;;;;;;;16.44;59.21;100805.97;5071269;28;1973;-65
2021/03/22 06:43:05;;;;;;;;;;;;;;;16.55;59.64;100819.50;5089146;28;1314;-65
2021/03/22 06:45:33;;;;;;;;;;;;;;;16.53;59.86;100826.59;5097044;28;1487;-65
2021/03/22 06:48:22;;;;;;;;;;;;;;;16.40;59.10;100822.81;5092149;28;1319;-64
2021/03/22 06:51:04;;;;;;;;;;;;;;;16.39;58.89;100818.47;5086961;28;1522;-64
2021/03/22 06:53:45;;;;;;;;;;;;;;;16.37;59.14;100825.59;5096389;28;1124;-64
2021/03/22 06:56:11;;;;;;;;;;;;;;;16.36;58.92;100821.25;5105473;28;1251;-65
2021/03/22 06:58:38;;;;;;;;;;;;;;;16.38;59.32;100824.66;5108865;28;1009;-64
2021/03/22 07:01:16;;;;;;;;;;;;;;;16.42;58.78;100828.84;5108272;28;1910;-65
2021/03/22 07:03:43;;;;;;;;;;;;;;;16.39;58.56;100835.09;5083718;28;1565;-65
2021/03/22 07:06:20;;;;;;;;;;;;;;;16.31;58.51;100839.00;5083451;28;1299;-65
2021/03/22 07:08:47;;;;;;;;;;;;;;;16.37;58.93;100836.09;5097860;28;1035;-67
2021/03/22 07:11:16;;;;;;;;;;;;;;;16.42;59.29;100839.38;5108735;28;1228;-67
2021/03/22 07:13:53;;;;;;;;;;;;;;;16.43;58.73;100838.44;5098511;28;1034;-66
2021/03/22 07:16:21;;;;;;;;;;;;;;;16.46;58.03;100843.56;5097494;28;1487;-66
2021/03/22 07:19:06;;;;;;;;;;;;;;;16.51;57.96;100852.09;5107354;28;1096;-68
2021/03/22 07:21:34;;;;;;;;;;;;;;;16.55;58.00;100850.22;5087768;28;1906;-66
2021/03/22 07:24:06;;;;;;;;;;;;;;;16.59;58.90;100857.03;5088683;28;1046;-66
2021/03/22 07:26:51;;;;;;;;;;;;;;;16.61;57.93;100863.94;5109295;28;1354;-65
2021/03/22 07:29:40;;;;;;;;;;;;;;;16.67;57.51;100857.53;5109332;28;1054;-65
2021/03/22 07:32:06;;;;;;;;;;;;;;;16.65;57.40;100862.88;5090692;28;1325;-65
2021/03/22 07:34:41;;;;;;;;;;;;;;;16.64;56.88;100870.81;5109503;28;1030;-66
2021/03/22 07:37:31;;;;;;;;;;;;;;;16.66;56.63;100859.31;5094620;28;1518;-64
2021/03/22 07:40:20;;;;;;;;;;;;;;;16.70;56.71;100858.25;5069916;28;993;-67
2021/03/22 07:43:00;;;;;;;;;;;;;;;16.73;56.49;100858.09;5069717;28;1918;-66
2021/03/22 07:45:32;;;;;;;;;;;;;;;16.72;57.49;100856.38;5090292;28;1565;-69
2021/03/22 07:48:01;;;;;;;;;;;;;;;16.72;56.19;100845.00;5100805;28;1712;-69
2021/03/22 07:50:43;;;;;;;;;;;;;;;16.75;56.70;100850.97;5106579;28;1279;-66
2021/03/22 07:53:22;;;;;;;;;;;;;;;16.83;56.74;100848.00;5105215;28;999;-68
2021/03/22 07:55:51;;;;;;;;;;;;;;;16.76;55.83;100847.44;5107121;28;1266;-69
2021/03/22 07:58:30;;;;;;;;;;;;;;;16.70;55.56;100847.72;5072107;28;1795;-68
2021/03/22 08:00:56;;;;;;;;;;;;;;;16.70;57.04;100850.34;5106109;28;1976;-68
2021/03/22 08:03:29;;;;;;;;;;;;;;;16.83;57.99;100858.53;5071677;28;1219;-68
2021/03/22 08:06:11;;;;;;;;;;;;;;;16.82;56.02;100847.16;5088584;28;1360;-68
2021/03/22 08:08:50;;;;;;;;;;;;;;;16.78;57.41;100858.72;5088857;28;1028;-66
2021/03/22 08:11:22;;;;;;;;;;;;;;;16.74;55.88;100857.19;5107287;28;1184;-67
2021/03/22 08:13:51;;;;;;;;;;;;;;;16.73;57.57;100863.38;5092589;28;1127;-69
2021/03/22 08:16:38;;;;;;;;;;;;;;;16.71;56.11;100872.25;5075607;28;1334;-67
2021/03/22 08:19:14;;;;;;;;;;;;;;;16.71;55.85;100865.22;5111038;28;1085;-68
2021/03/22 08:21:48;;;;;;;;;;;;;;;16.72;55.68;100866.91;5110721;28;1976;-69
2021/03/22 08:24:34;;;;;;;;;;;;;;;16.70;55.35;100871.41;5075346;28;1364;-69
2021/03/22 08:27:14;;;;;;;;;;;;;;;16.71;55.10;100867.84;5110469;28;1279;-68
2021/03/22 08:29:48;;;;;;;;;;;;;;;16.70;55.20;100874.03;5110647;28;1018;-69
2021/03/22 08:32:33;;;;;;;;;;;;;;;16.71;54.79;100872.25;5075071;28;1437;-68
2021/03/22 08:35:19;;;;;;;;;;;;;;;16.73;54.84;100876.50;5092596;28;1098;-68
2021/03/22 08:37:48;;;;;;;;;;;;;;;16.85;56.87;100877.72;5092021;28;1317;-68
2021/03/22 08:40:37;;;;;;;;;;;;;;;16.80;56.49;100862.16;5091585;28;1550;-68
2021/03/22 08:43:06;;;;;;;;;;;;;;;16.81;57.02;100874.38;5099263;28;1574;-67
2021/03/22 08:45:37;;;;;;;;;;;;;;;16.84;57.90;100879.50;5110182;28;1242;-68
2021/03/22 08:48:10;;;;;;;;;;;;;;;17.08;58.87;100874.88;5111195;28;790;-65
2021/03/22 08:50:38;;;;;;;;;;;;;;;17.09;57.42;100881.81;5092765;28;1338;-67
2021/03/22 08:53:05;;;;;;;;;;;;;;;16.91;55.01;100888.81;5076401;28;1311;-68
2021/03/22 08:55:43;;;;;;;;;;;;;;;16.87;54.64;100891.69;5092519;28;1052;-67
2021/03/22 08:58:23;;;;;;;;;;;;;;;16.85;54.44;100889.09;5111780;28;861;-67
2021/03/22 09:00:52;;;;;;;;;;;;;;;16.87;54.61;100895.13;5092820;28;1914;-68
2021/03/22 09:03:27;;;;;;;;;;;;;;;16.88;54.45;100885.47;5093161;28;1047;-67
2021/03/22 09:06:00;;;;;;;;;;;;;;;16.89;54.32;100889.81;5092745;28;1335;-68
2021/03/22 09:08:27;;;;;;;;;;;;;;;16.89;54.48;100887.19;5092845;28;1122;-67
2021/03/22 09:10:53;;;;;;;;;;;;;;;16.88;55.09;100888.97;5110943;28;1190;-67
2021/03/22 09:13:36;;;;;;;;;;;;;;;16.89;54.57;100889.81;5092558;28;1178;-68
2021/03/22 09:16:02;;;;;;;;;;;;;;;16.90;55.00;100886.28;5092841;28;1335;-68
2021/03/22 09:18:29;;;;;;;;;;;;;;;16.89;55.12;100888.03;5111076;28;1053;-69
2021/03/22 09:21:03;;;;;;;;;;;;;;;16.89;54.16;100888.03;5091691;28;2308;-69
2021/03/22 09:23:35;;;;;;;;;;;;;;;16.90;54.17;100896.78;5110160;28;1072;-68
2021/03/22 09:26:04;;;;;;;;;;;;;;;16.91;54.40;100903.75;5110599;28;1231;-67
2021/03/22 09:28:36;;;;;;;;;;;;;;;16.90;55.35;100908.16;5110727;28;931;-68
2021/03/22 09:31:11;;;;;;;;;;;;;;;16.90;54.74;100889.72;5092234;28;1292;-69
2021/03/22 09:33:49;;;;;;;;;;;;;;;16.90;55.35;100892.34;5110633;28;944;-68
2021/03/22 09:36:35;;;;;;;;;;;;;;;16.91;54.66;100901.97;5091986;28;1201;-67
2021/03/22 09:39:06;;;;;;;;;;;;;;;16.91;54.45;100904.59;5092049;28;1067;-67
2021/03/22 09:41:52;;;;;;;;;;;;;;;16.90;54.15;100895.00;5091503;28;1979;-68
2021/03/22 09:44:24;;;;;;;;;;;;;;;16.90;53.93;100897.63;5091878;28;1209;-67
2021/03/22 09:47:10;;;;;;;;;;;;;;;16.90;54.38;100913.41;5092114;28;1403;-67
2021/03/22 09:50:05;;;;;;;;;;;;;;;16.91;54.22;100909.84;5092512;28;1593;-67
2021/03/22 09:53:01;;;;;;;;;;;;;;;16.91;56.08;100909.84;5087002;28;1559;-68
2021/03/22 09:55:27;;;;;;;;;;;;;;;16.94;55.29;100914.97;5071646;28;1737;-68
2021/03/22 09:57:55;;;;;;;;;;;;;;;16.96;55.63;100914.06;5083306;28;1389;-67
2021/03/22 10:00:25;;;;;;;;;;;;;;;16.97;55.74;100913.13;5110677;28;1316;-68
2021/03/22 10:02:54;;;;;;;;;;;;;;;17.04;58.35;100919.81;5111732;27;1929;-70
2021/03/22 10:05:28;;;;;;;;;;;;;;;16.98;56.82;100912.22;5070863;28;1266;-70
2021/03/22 10:08:12;;;;;;;;;;;;;;;17.00;56.09;100923.50;5108329;27;1212;-69
2021/03/22 10:10:40;;;;;;;;;;;;;;;16.98;54.21;100914.84;5093538;27;1630;-68
2021/03/22 10:13:08;;;;;;;;;;;;;;;16.98;53.21;100914.84;5096004;27;1185;-69
2021/03/22 10:15:45;;;;;;;;;;;;;;;16.98;52.68;100909.56;5109384;28;1404;-70
2021/03/22 10:18:30;;;;;;;;;;;;;;;16.99;53.30;100912.16;5075590;28;1815;-70
2021/03/22 10:21:04;;;;;;;;;;;;;;;17.00;54.10;100910.34;5090158;28;1906;-72
2021/03/22 10:23:45;;;;;;;;;;;;;;;17.00;53.86;100905.09;5108878;28;1102;-72
2021/03/22 10:26:16;;;;;;;;;;;;;;;16.99;53.31;100900.75;5090577;28;1279;-68
2021/03/22 10:28:42;;;;;;;;;;;;;;;17.02;53.88;100905.88;5108876;28;1136;-68
2021/03/22 10:31:16;;;;;;;;;;;;;;;17.02;53.05;100916.41;5061731;28;1280;-69
2021/03/22 10:33:47;;;;;;;;;;;;;;;17.02;53.74;100916.41;5101423;27;1134;-69
2021/03/22 10:36:22;;;;;;;;;;;;;;;17.03;53.02;100916.31;5108667;28;1286;-69
2021/03/22 10:38:50;;;;;;;;;;;;;;;17.02;51.81;100903.25;5108546;28;1130;-69
2021/03/22 10:41:37;;;;;;;;;;;;;;;17.04;52.59;100912.78;5090388;28;1974;-68
2021/03/22 10:44:16;;;;;;;;;;;;;;;17.03;54.08;100900.53;5108476;28;1196;-69
2021/03/22 10:46:42;;;;;;;;;;;;;;;17.05;54.63;100905.75;5108930;28;1283;-69
2021/03/22 10:49:13;;;;;;;;;;;;;;;17.07;55.16;100906.50;5090662;28;1148;-69
2021/03/22 10:51:41;;;;;;;;;;;;;;;17.06;52.83;100907.44;5090474;28;1283;-70
2021/03/22 10:54:08;;;;;;;;;;;;;;;17.06;53.53;100899.53;5112172;27;1067;-72
2021/03/22 10:56:37;;;;;;;;;;;;;;;17.08;53.49;100905.59;5090544;28;1374;-70
2021/03/22 10:59:10;;;;;;;;;;;;;;;17.07;55.65;100907.38;5108550;28;1124;-72
2021/03/22 11:01:37;;;;;;;;;;;;;;;17.08;55.72;100901.19;5108827;28;1977;-70
2021/03/22 11:04:11;;;;;;;;;;;;;;;17.09;55.29;100899.38;5108396;28;1112;-69
2021/03/22 11:06:38;;;;;;;;;;;;;;;17.08;54.69;100898.56;5090047;28;1399;-70
2021/03/22 11:09:07;;;;;;;;;;;;;;;17.10;54.98;100904.59;5070904;28;1214;-70
2021/03/22 11:11:34;;;;;;;;;;;;;;;17.11;55.74;100889.66;5108655;28;1223;-73
2021/03/22 11:14:03;;;;;;;;;;;;;;;17.12;56.26;100883.44;5108659;28;999;-72
2021/03/22 11:16:35;;;;;;;;;;;;;;;17.12;56.47;100888.72;5073623;28;1332;-69
2021/03/22 11:19:34;;;;;;;;;;;;;;;17.12;57.07;100888.72;5089534;28;1061;-70
2021/03/22 11:22:01;;;;;;;;;;;;;;;17.13;57.03;100888.66;5051379;28;2023;-69
2021/03/22 11:24:36;;;;;;;;;;;;;;;17.16;57.44;100885.00;5089337;28;1241;-69
2021/03/22 11:27:06;;;;;;;;;;;;;;;17.16;57.28;100885.88;5108189;28;1376;-72
2021/03/22 11:29:33;;;;;;;;;;;;;;;17.17;57.19;100899.88;5108607;28;1133;-72
2021/03/22 11:32:02;;;;;;;;;;;;;;;17.17;57.33;100898.13;5108461;28;1224;-68
2021/03/22 11:34:33;;;;;;;;;;;;;;;17.13;57.22;100891.28;5088488;28;1075;-70
2021/03/22 11:37:13;;;;;;;;;;;;;;;17.17;57.22;100894.63;5087986;28;1275;-70
2021/03/22 11:39:40;;;;;;;;;;;;;;;17.16;58.26;100903.44;5119912;28;1198;-70
2021/03/22 11:42:18;;;;;;;;;;;;;;;17.16;59.00;100906.06;5108387;28;1922;-70
2021/03/22 11:44:44;;;;;;;;;;;;;;;17.14;58.95;100906.16;5108625;28;1141;-70
2021/03/22 11:47:29;;;;;;;;;;;;;;;17.14;59.10;100900.91;5111149;28;1275;-70
2021/03/22 11:49:56;;;;;;;;;;;;;;;17.15;59.38;100901.72;5093568;28;1413;-70
2021/03/22 11:52:32;;;;;;;;;;;;;;;17.15;59.27;100902.59;5111978;28;1368;-70
2021/03/22 11:55:07;;;;;;;;;;;;;;;17.19;58.34;100905.94;5082417;28;1593;-69
2021/03/22 11:57:37;;;;;;;;;;;;;;;17.21;58.32;100899.66;5109856;28;1537;-68
2021/03/22 12:00:08;;;;;;;;;;;;;;;17.22;58.34;100897.88;5098076;28;1601;-69
2021/03/22 12:02:56;;;;;;;;;;;;;;;17.22;58.08;100889.97;5109028;27;1980;-68
2021/03/22 12:05:23;;;;;;;;;;;;;;;17.20;58.31;100890.06;5094891;27;1229;-68
2021/03/22 12:07:49;;;;;;;;;;;;;;;17.16;58.17;100885.88;5088174;27;1256;-69
2021/03/22 12:10:17;;;;;;;;;;;;;;;17.19;58.49;100884.88;5102441;28;1295;-69
2021/03/22 12:12:44;;;;;;;;;;;;;;;17.24;58.44;100885.50;5111637;27;1605;-69
2021/03/22 12:15:18;;;;;;;;;;;;;;;17.26;58.24;100878.38;5085985;28;1429;-70
2021/03/22 12:18:10;;;;;;;;;;;;;;;17.26;58.38;100878.38;5068306;28;1430;-69
2021/03/22 12:20:37;;;;;;;;;;;;;;;17.27;58.32;100880.06;5100006;28;1342;-69
2021/03/22 12:23:04;;;;;;;;;;;;;;;17.29;57.95;100873.84;5069754;27;2009;-72
2021/03/22 12:25:33;;;;;;;;;;;;;;;17.37;58.04;100873.44;5110118;28;1577;-69
2021/03/22 12:28:00;;;;;;;;;;;;;;;17.35;57.93;100880.56;5108000;28;1343;-68
2021/03/22 12:30:28;;;;;;;;;;;;;;;17.34;58.35;100863.06;5085489;28;1609;-68
2021/03/22 12:32:56;;;;;;;;;;;;;;;17.33;58.22;100866.59;5114479;27;1306;-67
2021/03/22 12:35:28;;;;;;;;;;;;;;;17.35;58.44;100867.41;5076386;28;1614;-67
2021/03/22 12:37:54;;;;;;;;;;;;;;;17.36;58.41;100864.69;5108593;28;1287;-66
2021/03/22 12:40:21;;;;;;;;;;;;;;;17.36;58.32;100858.56;5103122;28;1058;-68
2021/03/22 12:42:54;;;;;;;;;;;;;;;17.36;58.35;100856.78;5095608;27;1910;-67
2021/03/22 12:45:21;;;;;;;;;;;;;;;17.35;58.10;100857.72;5094825;28;1144;-67
2021/03/22 12:47:48;;;;;;;;;;;;;;;17.36;58.39;100846.25;5112587;27;1286;-66
2021/03/22 12:50:22;;;;;;;;;;;;;;;17.37;58.35;100847.09;5115270;27;1128;-66
2021/03/22 12:52:50;;;;;;;;;;;;;;;17.39;58.27;100839.97;5110306;28;1425;-66
2021/03/22 12:55:18;;;;;;;;;;;;;;;17.39;58.46;100839.97;5092446;28;1247;-66
2021/03/22 12:57:48;;;;;;;;;;;;;;;17.37;58.36;100844.47;5092091;28;1290;-67
2021/03/22 13:00:17;;;;;;;;;;;;;;;17.39;58.31;100832.06;5110978;28;1144;-68
2021/03/22 13:02:46;;;;;;;;;;;;;;;17.42;58.73;100837.19;5110536;28;1989;-65
2021/03/22 13:05:36;;;;;;;;;;;;;;;17.61;58.08;100827.47;5094845;28;1674;-69
2021/03/22 13:08:03;;;;;;;;;;;;;;;17.61;57.97;100827.47;5090426;27;1677;-70